sensor_id;sensor_type;location;lat;lon;timestamp;temperature;humidity
72940;DHT22;61094;51.154;13.570;2023-05-07T00:04:29;9.50;99.90
72940;DHT22;61094;51.154;13.570;2023-05-07T00:09:37;9.50;99.90
72940;DHT22;61094;51.154;13.570;2023-05-07T00:14:40;9.40;99.90
72940;DHT22;61094;51.154;13.570;2023-05-07T00:19:42;9.40;99.90
72940;DHT22;61094;51.154;13.570;2023-05-07T00:24:43;9.40;99.90
72940;DHT22;61094;51.154;13.570;2023-05-07T00:29:46;9.40;99.90
72940;DHT22;61094;51.154;13.570;2023-05-07T00:34:48;9.40;99.90
72940;DHT22;61094;51.154;13.570;2023-05-07T00:39:51;9.30;99.90
72940;DHT22;61094;51.154;13.570;2023-05-07T00:44:54;9.30;99.90
72940;DHT22;61094;51.154;13.570;2023-05-07T00:49:56;9.40;99.90
72940;DHT22;61094;51.154;13.570;2023-05-07T00:55:00;9.40;99.90
72940;DHT22;61094;51.154;13.570;2023-05-07T01:00:06;9.30;99.90
72940;DHT22;61094;51.154;13.570;2023-05-07T01:05:11;9.30;99.90
72940;DHT22;61094;51.154;13.570;2023-05-07T01:10:14;9.30;99.90
72940;DHT22;61094;51.154;13.570;2023-05-07T01:15:18;9.20;99.90
72940;DHT22;61094;51.154;13.570;2023-05-07T01:20:20;9.20;99.90
72940;DHT22;61094;51.154;13.570;2023-05-07T01:25:26;9.20;99.90
72940;DHT22;61094;51.154;13.570;2023-05-07T01:30:33;9.20;99.90
72940;DHT22;61094;51.154;13.570;2023-05-07T01:35:41;9.20;99.90
72940;DHT22;61094;51.154;13.570;2023-05-07T01:40:46;9.20;99.90
72940;DHT22;61094;51.154;13.570;2023-05-07T01:45:49;9.20;99.90
72940;DHT22;61094;51.154;13.570;2023-05-07T01:50:51;9.20;99.90
72940;DHT22;61094;51.154;13.570;2023-05-07T01:55:54;9.20;99.90
72940;DHT22;61094;51.154;13.570;2023-05-07T02:00:57;9.20;99.90
72940;DHT22;61094;51.154;13.570;2023-05-07T02:05:59;9.20;99.90
72940;DHT22;61094;51.154;13.570;2023-05-07T02:11:07;9.20;99.90
72940;DHT22;61094;51.154;13.570;2023-05-07T02:16:09;9.10;99.90
72940;DHT22;61094;51.154;13.570;2023-05-07T02:21:12;9.10;99.90
72940;DHT22;61094;51.154;13.570;2023-05-07T02:26:16;9.00;99.90
72940;DHT22;61094;51.154;13.570;2023-05-07T02:31:17;9.00;99.90
72940;DHT22;61094;51.154;13.570;2023-05-07T02:36:19;8.90;99.90
72940;DHT22;61094;51.154;13.570;2023-05-07T02:41:38;9.00;99.90
72940;DHT22;61094;51.154;13.570;2023-05-07T02:46:40;8.90;99.90
72940;DHT22;61094;51.154;13.570;2023-05-07T02:51:44;9.00;99.90
72940;DHT22;61094;51.154;13.570;2023-05-07T02:56:54;8.90;99.90
72940;DHT22;61094;51.154;13.570;2023-05-07T03:01:56;8.90;99.90
72940;DHT22;61094;51.154;13.570;2023-05-07T03:06:58;8.80;99.90
72940;DHT22;61094;51.154;13.570;2023-05-07T03:12:01;8.70;99.90
72940;DHT22;61094;51.154;13.570;2023-05-07T03:17:03;8.70;99.90
72940;DHT22;61094;51.154;13.570;2023-05-07T03:22:05;8.70;99.90
72940;DHT22;61094;51.154;13.570;2023-05-07T03:27:08;8.60;99.90
72940;DHT22;61094;51.154;13.570;2023-05-07T03:32:10;8.70;99.90
72940;DHT22;61094;51.154;13.570;2023-05-07T03:37:12;8.60;99.90
72940;DHT22;61094;51.154;13.570;2023-05-07T03:42:16;8.60;99.90
72940;DHT22;61094;51.154;13.570;2023-05-07T03:47:18;8.60;99.90
72940;DHT22;61094;51.154;13.570;2023-05-07T03:52:21;8.60;99.90
72940;DHT22;61094;51.154;13.570;2023-05-07T03:57:28;8.60;99.90
72940;DHT22;61094;51.154;13.570;2023-05-07T04:02:33;8.60;99.90
72940;DHT22;61094;51.154;13.570;2023-05-07T04:07:34;8.60;99.90
72940;DHT22;61094;51.154;13.570;2023-05-07T04:12:38;8.70;99.90
72940;DHT22;61094;51.154;13.570;2023-05-07T04:17:41;8.70;99.90
72940;DHT22;61094;51.154;13.570;2023-05-07T04:22:43;8.70;99.90
72940;DHT22;61094;51.154;13.570;2023-05-07T04:27:47;8.70;99.90
72940;DHT22;61094;51.154;13.570;2023-05-07T04:32:50;8.70;99.90
72940;DHT22;61094;51.154;13.570;2023-05-07T04:37:52;8.70;99.90
72940;DHT22;61094;51.154;13.570;2023-05-07T04:42:55;8.70;99.90
72940;DHT22;61094;51.154;13.570;2023-05-07T04:47:57;8.80;99.90
72940;DHT22;61094;51.154;13.570;2023-05-07T04:52:59;8.80;99.90
72940;DHT22;61094;51.154;13.570;2023-05-07T04:58:03;8.80;99.90
72940;DHT22;61094;51.154;13.570;2023-05-07T05:03:07;8.90;99.90
72940;DHT22;61094;51.154;13.570;2023-05-07T05:08:12;8.90;99.90
72940;DHT22;61094;51.154;13.570;2023-05-07T05:13:18;8.90;99.90
72940;DHT22;61094;51.154;13.570;2023-05-07T05:18:20;9.00;99.90
72940;DHT22;61094;51.154;13.570;2023-05-07T05:23:22;9.10;99.90
72940;DHT22;61094;51.154;13.570;2023-05-07T05:28:25;9.10;99.90
72940;DHT22;61094;51.154;13.570;2023-05-07T05:33:28;9.00;99.90
72940;DHT22;61094;51.154;13.570;2023-05-07T05:38:42;9.10;99.90
72940;DHT22;61094;51.154;13.570;2023-05-07T05:43:46;9.20;99.90
72940;DHT22;61094;51.154;13.570;2023-05-07T05:48:48;9.20;99.90
72940;DHT22;61094;51.154;13.570;2023-05-07T05:53:50;9.20;99.90
72940;DHT22;61094;51.154;13.570;2023-05-07T05:58:53;9.20;99.90
72940;DHT22;61094;51.154;13.570;2023-05-07T06:03:56;9.30;99.90
72940;DHT22;61094;51.154;13.570;2023-05-07T06:08:57;9.40;99.90
72940;DHT22;61094;51.154;13.570;2023-05-07T06:14:09;9.40;99.90
72940;DHT22;61094;51.154;13.570;2023-05-07T06:19:12;9.40;99.90
72940;DHT22;61094;51.154;13.570;2023-05-07T06:24:20;9.40;99.90
72940;DHT22;61094;51.154;13.570;2023-05-07T06:29:43;9.30;99.90
72940;DHT22;61094;51.154;13.570;2023-05-07T06:34:54;9.30;99.90
72940;DHT22;61094;51.154;13.570;2023-05-07T06:40:04;9.20;99.90
72940;DHT22;61094;51.154;13.570;2023-05-07T06:45:11;9.30;99.90
72940;DHT22;61094;51.154;13.570;2023-05-07T06:50:13;9.40;99.90
72940;DHT22;61094;51.154;13.570;2023-05-07T06:55:17;9.50;99.90
72940;DHT22;61094;51.154;13.570;2023-05-07T07:00:22;9.40;99.90
72940;DHT22;61094;51.154;13.570;2023-05-07T07:05:28;9.40;99.90
72940;DHT22;61094;51.154;13.570;2023-05-07T07:10:31;9.30;99.90
72940;DHT22;61094;51.154;13.570;2023-05-07T07:15:35;9.30;99.90
72940;DHT22;61094;51.154;13.570;2023-05-07T07:20:37;9.30;99.90
72940;DHT22;61094;51.154;13.570;2023-05-07T07:25:42;9.20;99.90
72940;DHT22;61094;51.154;13.570;2023-05-07T07:30:46;9.20;99.90
72940;DHT22;61094;51.154;13.570;2023-05-07T07:35:48;9.30;99.90
72940;DHT22;61094;51.154;13.570;2023-05-07T07:40:50;9.20;99.90
72940;DHT22;61094;51.154;13.570;2023-05-07T07:45:54;9.30;99.90
72940;DHT22;61094;51.154;13.570;2023-05-07T07:50:56;9.50;99.90
72940;DHT22;61094;51.154;13.570;2023-05-07T07:55:58;9.60;99.90
72940;DHT22;61094;51.154;13.570;2023-05-07T08:01:07;9.70;99.90
72940;DHT22;61094;51.154;13.570;2023-05-07T08:06:09;9.80;99.90
72940;DHT22;61094;51.154;13.570;2023-05-07T08:11:11;9.80;99.90
72940;DHT22;61094;51.154;13.570;2023-05-07T08:16:15;9.70;99.90
72940;DHT22;61094;51.154;13.570;2023-05-07T08:26:28;9.80;99.90
72940;DHT22;61094;51.154;13.570;2023-05-07T08:31:36;9.80;99.90
72940;DHT22;61094;51.154;13.570;2023-05-07T08:36:40;9.70;99.90
72940;DHT22;61094;51.154;13.570;2023-05-07T08:41:47;9.70;99.90
72940;DHT22;61094;51.154;13.570;2023-05-07T08:52:54;9.70;99.90
72940;DHT22;61094;51.154;13.570;2023-05-07T08:57:57;9.80;99.90
72940;DHT22;61094;51.154;13.570;2023-05-07T09:03:00;10.00;99.90
72940;DHT22;61094;51.154;13.570;2023-05-07T09:08:06;10.00;99.90
72940;DHT22;61094;51.154;13.570;2023-05-07T09:13:08;9.90;99.90
72940;DHT22;61094;51.154;13.570;2023-05-07T09:18:12;9.90;99.90
72940;DHT22;61094;51.154;13.570;2023-05-07T09:23:16;10.00;99.90
72940;DHT22;61094;51.154;13.570;2023-05-07T09:28:18;10.00;99.90
72940;DHT22;61094;51.154;13.570;2023-05-07T09:33:20;10.00;99.90
72940;DHT22;61094;51.154;13.570;2023-05-07T09:38:27;10.00;99.90
72940;DHT22;61094;51.154;13.570;2023-05-07T09:43:32;10.00;99.90
72940;DHT22;61094;51.154;13.570;2023-05-07T09:48:38;10.00;99.90
72940;DHT22;61094;51.154;13.570;2023-05-07T09:53:43;10.00;99.90
72940;DHT22;61094;51.154;13.570;2023-05-07T09:58:48;9.90;99.90
72940;DHT22;61094;51.154;13.570;2023-05-07T10:03:51;10.00;99.90
72940;DHT22;61094;51.154;13.570;2023-05-07T10:08:55;10.10;99.90
72940;DHT22;61094;51.154;13.570;2023-05-07T10:13:58;10.10;99.90
72940;DHT22;61094;51.154;13.570;2023-05-07T10:19:02;10.20;99.90
72940;DHT22;61094;51.154;13.570;2023-05-07T10:24:09;10.20;99.90
72940;DHT22;61094;51.154;13.570;2023-05-07T10:29:17;10.50;99.90
72940;DHT22;61094;51.154;13.570;2023-05-07T10:34:28;10.50;99.90
72940;DHT22;61094;51.154;13.570;2023-05-07T10:39:46;10.50;99.90
72940;DHT22;61094;51.154;13.570;2023-05-07T10:44:48;10.60;99.90
72940;DHT22;61094;51.154;13.570;2023-05-07T10:50:22;10.80;99.90
72940;DHT22;61094;51.154;13.570;2023-05-07T10:55:29;11.00;99.90
72940;DHT22;61094;51.154;13.570;2023-05-07T11:00:45;11.20;99.90
72940;DHT22;61094;51.154;13.570;2023-05-07T11:06:21;11.20;99.30
72940;DHT22;61094;51.154;13.570;2023-05-07T11:11:53;11.40;99.50
72940;DHT22;61094;51.154;13.570;2023-05-07T11:17:17;11.30;99.30
72940;DHT22;61094;51.154;13.570;2023-05-07T11:22:37;11.50;99.90
72940;DHT22;61094;51.154;13.570;2023-05-07T11:27:51;11.60;96.50
72940;DHT22;61094;51.154;13.570;2023-05-07T11:32:53;11.90;98.40
72940;DHT22;61094;51.154;13.570;2023-05-07T11:37:58;11.90;97.90
72940;DHT22;61094;51.154;13.570;2023-05-07T11:43:11;11.80;98.00
72940;DHT22;61094;51.154;13.570;2023-05-07T11:48:18;12.00;98.40
72940;DHT22;61094;51.154;13.570;2023-05-07T11:53:34;12.20;96.70
72940;DHT22;61094;51.154;13.570;2023-05-07T11:58:39;12.50;95.60
72940;DHT22;61094;51.154;13.570;2023-05-07T12:03:42;12.60;95.20
72940;DHT22;61094;51.154;13.570;2023-05-07T12:08:46;12.50;93.10
72940;DHT22;61094;51.154;13.570;2023-05-07T12:13:49;12.50;94.50
72940;DHT22;61094;51.154;13.570;2023-05-07T12:18:51;12.30;94.70
72940;DHT22;61094;51.154;13.570;2023-05-07T12:23:56;12.30;96.00
72940;DHT22;61094;51.154;13.570;2023-05-07T12:28:59;12.20;95.00
72940;DHT22;61094;51.154;13.570;2023-05-07T12:34:05;12.30;95.70
72940;DHT22;61094;51.154;13.570;2023-05-07T12:39:09;12.30;95.30
72940;DHT22;61094;51.154;13.570;2023-05-07T12:44:15;12.40;95.70
72940;DHT22;61094;51.154;13.570;2023-05-07T12:49:17;12.40;95.10
72940;DHT22;61094;51.154;13.570;2023-05-07T12:54:29;12.60;94.20
72940;DHT22;61094;51.154;13.570;2023-05-07T12:59:40;12.90;93.00
72940;DHT22;61094;51.154;13.570;2023-05-07T13:04:45;13.20;91.60
72940;DHT22;61094;51.154;13.570;2023-05-07T13:09:48;13.30;92.00
72940;DHT22;61094;51.154;13.570;2023-05-07T13:14:51;13.40;90.50
72940;DHT22;61094;51.154;13.570;2023-05-07T13:19:53;13.60;91.50
72940;DHT22;61094;51.154;13.570;2023-05-07T13:24:55;13.80;90.30
72940;DHT22;61094;51.154;13.570;2023-05-07T13:29:58;13.90;88.10
72940;DHT22;61094;51.154;13.570;2023-05-07T13:35:00;14.10;88.90
72940;DHT22;61094;51.154;13.570;2023-05-07T13:40:04;13.90;84.10
72940;DHT22;61094;51.154;13.570;2023-05-07T13:45:09;14.20;87.20
72940;DHT22;61094;51.154;13.570;2023-05-07T13:50:12;14.50;86.70
72940;DHT22;61094;51.154;13.570;2023-05-07T13:55:15;14.50;78.90
72940;DHT22;61094;51.154;13.570;2023-05-07T14:00:18;14.10;80.30
72940;DHT22;61094;51.154;13.570;2023-05-07T14:05:20;13.80;81.50
72940;DHT22;61094;51.154;13.570;2023-05-07T14:10:24;13.50;85.40
72940;DHT22;61094;51.154;13.570;2023-05-07T14:15:36;13.50;86.80
72940;DHT22;61094;51.154;13.570;2023-05-07T14:20:38;13.30;85.70
72940;DHT22;61094;51.154;13.570;2023-05-07T14:25:40;13.40;88.80
72940;DHT22;61094;51.154;13.570;2023-05-07T14:30:45;13.40;86.70
72940;DHT22;61094;51.154;13.570;2023-05-07T14:35:46;13.40;87.80
72940;DHT22;61094;51.154;13.570;2023-05-07T14:40:49;13.30;89.30
72940;DHT22;61094;51.154;13.570;2023-05-07T14:45:54;13.30;89.90
72940;DHT22;61094;51.154;13.570;2023-05-07T14:50:56;13.20;90.40
72940;DHT22;61094;51.154;13.570;2023-05-07T14:55:57;13.00;91.60
72940;DHT22;61094;51.154;13.570;2023-05-07T15:01:01;13.00;92.20
72940;DHT22;61094;51.154;13.570;2023-05-07T15:06:03;13.00;91.70
72940;DHT22;61094;51.154;13.570;2023-05-07T15:11:05;12.90;92.00
72940;DHT22;61094;51.154;13.570;2023-05-07T15:16:09;12.80;91.80
72940;DHT22;61094;51.154;13.570;2023-05-07T15:21:11;12.70;92.20
72940;DHT22;61094;51.154;13.570;2023-05-07T15:26:14;12.60;92.30
72940;DHT22;61094;51.154;13.570;2023-05-07T15:31:17;12.60;92.80
72940;DHT22;61094;51.154;13.570;2023-05-07T15:36:20;12.70;92.80
72940;DHT22;61094;51.154;13.570;2023-05-07T15:41:22;12.70;93.30
72940;DHT22;61094;51.154;13.570;2023-05-07T15:46:27;12.70;93.20
72940;DHT22;61094;51.154;13.570;2023-05-07T15:51:28;12.50;92.80
72940;DHT22;61094;51.154;13.570;2023-05-07T15:56:31;12.40;93.80
72940;DHT22;61094;51.154;13.570;2023-05-07T16:01:35;12.30;94.30
72940;DHT22;61094;51.154;13.570;2023-05-07T16:06:37;12.30;94.90
72940;DHT22;61094;51.154;13.570;2023-05-07T16:11:38;12.10;94.50
72940;DHT22;61094;51.154;13.570;2023-05-07T16:16:41;11.90;94.90
72940;DHT22;61094;51.154;13.570;2023-05-07T16:21:43;11.80;95.20
72940;DHT22;61094;51.154;13.570;2023-05-07T16:26:45;11.70;95.40
72940;DHT22;61094;51.154;13.570;2023-05-07T16:31:48;11.60;95.20
72940;DHT22;61094;51.154;13.570;2023-05-07T16:36:50;11.60;95.60
72940;DHT22;61094;51.154;13.570;2023-05-07T16:41:54;11.60;95.30
72940;DHT22;61094;51.154;13.570;2023-05-07T16:46:57;11.50;96.30
72940;DHT22;61094;51.154;13.570;2023-05-07T16:51:59;11.50;95.40
72940;DHT22;61094;51.154;13.570;2023-05-07T16:57:01;11.30;95.00
72940;DHT22;61094;51.154;13.570;2023-05-07T17:02:05;11.20;95.20
72940;DHT22;61094;51.154;13.570;2023-05-07T17:07:07;11.20;95.70
72940;DHT22;61094;51.154;13.570;2023-05-07T17:12:09;11.20;95.50
72940;DHT22;61094;51.154;13.570;2023-05-07T17:17:12;11.20;95.60
72940;DHT22;61094;51.154;13.570;2023-05-07T17:22:16;11.10;95.60
72940;DHT22;61094;51.154;13.570;2023-05-07T17:27:19;10.90;95.70
72940;DHT22;61094;51.154;13.570;2023-05-07T17:32:35;10.80;96.40
72940;DHT22;61094;51.154;13.570;2023-05-07T17:43:54;10.40;97.40
72940;DHT22;61094;51.154;13.570;2023-05-07T17:48:58;10.30;97.40
72940;DHT22;61094;51.154;13.570;2023-05-07T17:54:03;10.20;97.60
72940;DHT22;61094;51.154;13.570;2023-05-07T17:59:24;10.10;97.40
72940;DHT22;61094;51.154;13.570;2023-05-07T18:04:34;10.00;97.50
72940;DHT22;61094;51.154;13.570;2023-05-07T18:09:36;9.90;97.50
72940;DHT22;61094;51.154;13.570;2023-05-07T18:14:38;9.80;97.60
72940;DHT22;61094;51.154;13.570;2023-05-07T18:19:41;9.70;98.20
72940;DHT22;61094;51.154;13.570;2023-05-07T18:24:43;9.60;98.70
72940;DHT22;61094;51.154;13.570;2023-05-07T18:29:46;9.50;99.20
72940;DHT22;61094;51.154;13.570;2023-05-07T18:34:49;9.40;99.00
72940;DHT22;61094;51.154;13.570;2023-05-07T18:39:52;9.30;99.90
72940;DHT22;61094;51.154;13.570;2023-05-07T18:44:54;9.20;99.90
72940;DHT22;61094;51.154;13.570;2023-05-07T18:49:57;9.10;99.90
72940;DHT22;61094;51.154;13.570;2023-05-07T18:55:00;9.10;99.90
72940;DHT22;61094;51.154;13.570;2023-05-07T19:00:02;9.00;99.90
72940;DHT22;61094;51.154;13.570;2023-05-07T19:05:08;9.00;99.90
72940;DHT22;61094;51.154;13.570;2023-05-07T19:10:10;8.90;99.90
72940;DHT22;61094;51.154;13.570;2023-05-07T19:15:11;8.80;99.90
72940;DHT22;61094;51.154;13.570;2023-05-07T19:20:14;8.70;99.90
72940;DHT22;61094;51.154;13.570;2023-05-07T19:25:16;8.70;99.90
72940;DHT22;61094;51.154;13.570;2023-05-07T19:30:18;8.60;99.90
72940;DHT22;61094;51.154;13.570;2023-05-07T19:35:21;8.60;99.90
72940;DHT22;61094;51.154;13.570;2023-05-07T19:40:24;8.50;99.90
72940;DHT22;61094;51.154;13.570;2023-05-07T19:45:26;8.50;99.90
72940;DHT22;61094;51.154;13.570;2023-05-07T19:50:31;8.40;99.90
72940;DHT22;61094;51.154;13.570;2023-05-07T19:55:34;8.30;99.90
72940;DHT22;61094;51.154;13.570;2023-05-07T20:00:37;8.30;99.90
72940;DHT22;61094;51.154;13.570;2023-05-07T20:05:40;8.20;99.90
72940;DHT22;61094;51.154;13.570;2023-05-07T20:10:42;8.20;99.90
72940;DHT22;61094;51.154;13.570;2023-05-07T20:15:44;8.10;99.90
72940;DHT22;61094;51.154;13.570;2023-05-07T20:20:47;8.10;99.90
72940;DHT22;61094;51.154;13.570;2023-05-07T20:25:49;8.00;99.90
72940;DHT22;61094;51.154;13.570;2023-05-07T20:30:51;7.90;99.90
72940;DHT22;61094;51.154;13.570;2023-05-07T20:35:56;7.90;99.90
72940;DHT22;61094;51.154;13.570;2023-05-07T20:40:58;7.70;99.90
72940;DHT22;61094;51.154;13.570;2023-05-07T20:46:00;7.70;99.90
72940;DHT22;61094;51.154;13.570;2023-05-07T20:51:03;7.60;99.90
72940;DHT22;61094;51.154;13.570;2023-05-07T20:56:05;7.60;99.90
72940;DHT22;61094;51.154;13.570;2023-05-07T21:01:07;7.60;99.90
72940;DHT22;61094;51.154;13.570;2023-05-07T21:06:10;7.50;99.90
72940;DHT22;61094;51.154;13.570;2023-05-07T21:11:11;7.50;99.90
72940;DHT22;61094;51.154;13.570;2023-05-07T21:16:13;7.40;99.90
72940;DHT22;61094;51.154;13.570;2023-05-07T21:21:17;7.40;99.90
72940;DHT22;61094;51.154;13.570;2023-05-07T21:26:19;7.30;99.90
72940;DHT22;61094;51.154;13.570;2023-05-07T21:31:21;7.30;99.90
72940;DHT22;61094;51.154;13.570;2023-05-07T21:36:24;7.20;99.90
72940;DHT22;61094;51.154;13.570;2023-05-07T21:41:26;7.20;99.90
72940;DHT22;61094;51.154;13.570;2023-05-07T21:46:27;7.20;99.90
72940;DHT22;61094;51.154;13.570;2023-05-07T21:51:31;7.20;99.90
72940;DHT22;61094;51.154;13.570;2023-05-07T21:56:33;7.10;99.90
72940;DHT22;61094;51.154;13.570;2023-05-07T22:01:35;7.10;99.90
72940;DHT22;61094;51.154;13.570;2023-05-07T22:06:38;7.10;99.90
72940;DHT22;61094;51.154;13.570;2023-05-07T22:11:40;7.00;99.90
72940;DHT22;61094;51.154;13.570;2023-05-07T22:16:42;7.00;99.90
72940;DHT22;61094;51.154;13.570;2023-05-07T22:21:45;7.00;99.90
72940;DHT22;61094;51.154;13.570;2023-05-07T22:26:47;6.90;99.90
72940;DHT22;61094;51.154;13.570;2023-05-07T22:31:49;6.90;99.90
72940;DHT22;61094;51.154;13.570;2023-05-07T22:36:52;6.80;99.90
72940;DHT22;61094;51.154;13.570;2023-05-07T22:41:55;6.80;99.90
72940;DHT22;61094;51.154;13.570;2023-05-07T22:46:57;6.70;99.90
72940;DHT22;61094;51.154;13.570;2023-05-07T22:52:01;6.60;99.90
72940;DHT22;61094;51.154;13.570;2023-05-07T22:57:03;6.50;99.90
72940;DHT22;61094;51.154;13.570;2023-05-07T23:02:05;6.50;99.90
72940;DHT22;61094;51.154;13.570;2023-05-07T23:07:08;6.50;99.90
72940;DHT22;61094;51.154;13.570;2023-05-07T23:12:11;6.50;99.90
72940;DHT22;61094;51.154;13.570;2023-05-07T23:17:13;6.50;99.90
72940;DHT22;61094;51.154;13.570;2023-05-07T23:22:16;6.50;99.90
72940;DHT22;61094;51.154;13.570;2023-05-07T23:27:18;6.50;99.90
72940;DHT22;61094;51.154;13.570;2023-05-07T23:32:19;6.50;99.90
72940;DHT22;61094;51.154;13.570;2023-05-07T23:37:22;6.50;99.90
72940;DHT22;61094;51.154;13.570;2023-05-07T23:42:24;6.50;99.90
72940;DHT22;61094;51.154;13.570;2023-05-07T23:47:26;6.40;99.90
72940;DHT22;61094;51.154;13.570;2023-05-07T23:52:29;6.40;99.90
72940;DHT22;61094;51.154;13.570;2023-05-07T23:57:31;6.30;99.90
